createdAt,value
2022-08-20T00:01:04.531Z,17.48
2022-08-20T00:03:34.497Z,18.42
2022-08-20T00:06:31.751Z,19.73
2022-08-20T00:08:58.147Z,16.42
2022-08-20T00:11:26.405Z,17.38
2022-08-20T00:13:58.035Z,24.50
2022-08-20T00:16:26.897Z,19.65
2022-08-20T00:18:53.547Z,19.90
2022-08-20T00:21:21.668Z,20.33
2022-08-20T00:23:51.203Z,18.30
2022-08-20T00:26:19.050Z,17.73
2022-08-20T00:28:45.926Z,19.30
2022-08-20T00:31:16.136Z,23.10
2022-08-20T00:33:42.861Z,16.85
2022-08-20T00:36:10.767Z,14.75
2022-08-20T00:38:38.316Z,16.00
2022-08-20T00:41:05.420Z,20.30
2022-08-20T00:43:36.483Z,19.17
2022-08-20T00:46:07.292Z,16.58
2022-08-20T00:48:35.657Z,17.23
2022-08-20T00:51:18.731Z,17.38
2022-08-20T00:53:45.297Z,13.85
2022-08-20T00:56:12.645Z,17.58
2022-08-20T00:58:41.134Z,15.02
2022-08-20T01:01:08.171Z,16.90
2022-08-20T01:03:34.980Z,14.07
2022-08-20T01:06:01.384Z,15.23
2022-08-20T01:08:27.944Z,14.95
2022-08-20T01:11:08.087Z,15.82
2022-08-20T01:13:35.359Z,13.80
2022-08-20T01:16:03.926Z,15.15
2022-08-20T01:18:31.113Z,16.77
2022-08-20T01:21:03.126Z,16.02
2022-08-20T01:23:49.178Z,14.15
2022-08-20T01:26:18.492Z,16.20
2022-08-20T01:28:54.360Z,14.20
2022-08-20T01:31:23.572Z,11.63
2022-08-20T01:33:51.275Z,12.63
2022-08-20T01:36:20.592Z,14.07
2022-08-20T01:38:53.175Z,8.82
2022-08-20T01:41:36.397Z,11.10
2022-08-20T01:44:03.028Z,16.90
2022-08-20T01:46:36.722Z,13.80
2022-08-20T01:49:16.451Z,12.68
2022-08-20T01:51:50.851Z,15.75
2022-08-20T01:54:17.417Z,13.82
2022-08-20T01:56:51.848Z,14.00
2022-08-20T01:59:18.330Z,15.27
2022-08-20T02:01:46.294Z,13.43
2022-08-20T02:04:15.124Z,12.82
2022-08-20T02:06:56.315Z,14.77
2022-08-20T02:11:50.362Z,15.63
2022-08-20T02:14:16.996Z,13.18
2022-08-20T02:16:54.678Z,13.82
2022-08-20T02:19:45.889Z,12.95
2022-08-20T02:22:33.176Z,12.27
2022-08-20T02:24:59.577Z,10.02
2022-08-20T02:27:26.004Z,11.98
2022-08-20T02:29:53.090Z,13.48
2022-08-20T02:32:32.436Z,12.95
2022-08-20T02:35:02.876Z,9.90
2022-08-20T02:37:29.745Z,13.20
2022-08-20T02:39:56.222Z,12.82
2022-08-20T02:42:22.765Z,10.35
2022-08-20T02:44:49.159Z,11.38
2022-08-20T02:47:17.069Z,11.23
2022-08-20T02:49:43.481Z,13.60
2022-08-20T02:52:09.901Z,14.23
2022-08-20T02:54:36.357Z,12.18
2022-08-20T02:57:03.680Z,13.55
2022-08-20T02:59:30.082Z,14.05
2022-08-20T03:02:00.625Z,11.90
2022-08-20T03:04:31.028Z,9.65
2022-08-20T03:06:58.621Z,12.43
2022-08-20T03:09:25.121Z,14.65
2022-08-20T03:11:52.181Z,12.73
2022-08-20T03:14:19.476Z,9.63
2022-08-20T03:16:45.873Z,11.88
2022-08-20T03:19:13.751Z,9.60
2022-08-20T03:21:40.181Z,7.65
2022-08-20T03:24:06.699Z,10.63
2022-08-20T03:26:33.146Z,11.80
2022-08-20T03:28:59.615Z,10.85
2022-08-20T03:31:26.023Z,12.15
2022-08-20T03:33:53.461Z,12.07
2022-08-20T03:36:28.731Z,12.07
2022-08-20T03:38:57.419Z,9.73
2022-08-20T03:41:24.316Z,12.35
2022-08-20T03:43:50.924Z,8.25
2022-08-20T03:46:23.123Z,10.00
2022-08-20T03:49:00.388Z,15.27
2022-08-20T03:53:52.688Z,16.33
2022-08-20T03:56:19.166Z,14.05
2022-08-20T03:58:46.349Z,8.95
2022-08-20T04:01:45.140Z,13.85
2022-08-20T04:03:59.407Z,14.63
2022-08-20T04:06:29.230Z,12.32
2022-08-20T04:08:56.305Z,11.00
2022-08-20T04:11:23.722Z,14.15
2022-08-20T04:13:50.361Z,9.55
2022-08-20T04:16:17.670Z,10.60
2022-08-20T04:19:01.401Z,12.50
2022-08-20T04:21:33.019Z,9.32
2022-08-20T04:24:02.023Z,8.88
2022-08-20T04:26:28.608Z,9.35
2022-08-20T04:28:55.634Z,9.43
2022-08-20T04:31:25.443Z,13.70
2022-08-20T04:33:52.569Z,13.40
2022-08-20T04:36:30.425Z,9.48
2022-08-20T04:39:00.596Z,11.80
2022-08-20T04:41:30.395Z,13.63
2022-08-20T04:43:59.772Z,9.23
2022-08-20T04:46:28.653Z,7.13
2022-08-20T04:48:55.726Z,8.60
2022-08-20T04:51:23.032Z,9.57
2022-08-20T04:53:53.414Z,9.85
2022-08-20T04:56:23.777Z,8.35
2022-08-20T04:58:52.382Z,9.40
2022-08-20T05:01:19.023Z,13.23
2022-08-20T05:03:47.632Z,9.45
2022-08-20T05:06:16.896Z,7.68
2022-08-20T05:08:44.277Z,11.45
2022-08-20T05:11:33.380Z,11.45
2022-08-20T05:14:03.790Z,9.45
2022-08-20T05:16:30.311Z,12.77
2022-08-20T05:18:56.858Z,10.90
2022-08-20T05:21:23.392Z,10.45
2022-08-20T05:23:49.862Z,13.35
2022-08-20T05:26:17.020Z,10.07
2022-08-20T05:28:57.748Z,11.07
2022-08-20T05:31:32.357Z,9.02
2022-08-20T05:34:01.662Z,10.20
2022-08-20T05:36:28.193Z,8.45
2022-08-20T05:38:54.704Z,9.70
2022-08-20T05:41:29.110Z,10.65
2022-08-20T05:44:01.101Z,9.55
2022-08-20T05:46:28.737Z,11.05
2022-08-20T05:48:55.174Z,10.10
2022-08-20T05:51:26.445Z,11.00
2022-08-20T05:53:52.855Z,16.10
2022-08-20T05:56:19.374Z,11.95
2022-08-20T05:58:53.092Z,9.07
2022-08-20T06:01:19.702Z,10.52
2022-08-20T06:04:04.758Z,10.77
2022-08-20T06:06:44.383Z,10.23
2022-08-20T06:09:13.680Z,11.10
2022-08-20T06:11:42.145Z,12.45
2022-08-20T06:14:08.632Z,8.35
2022-08-20T06:16:37.253Z,10.05
2022-08-20T06:19:04.653Z,10.70
2022-08-20T06:21:31.312Z,8.15
2022-08-20T06:24:01.016Z,10.32
2022-08-20T06:26:32.144Z,8.15
2022-08-20T06:29:01.431Z,8.02
2022-08-20T06:31:30.839Z,8.40
2022-08-20T06:33:59.422Z,8.75
2022-08-20T06:36:26.120Z,11.63
2022-08-20T06:38:54.919Z,10.82
2022-08-20T06:41:35.724Z,8.20
2022-08-20T06:44:03.501Z,10.32
2022-08-20T06:46:30.057Z,16.33
2022-08-20T06:48:56.801Z,7.55
2022-08-20T06:51:25.680Z,6.75
2022-08-20T06:53:53.849Z,7.10
2022-08-20T06:56:22.620Z,6.97
2022-08-20T06:58:49.622Z,10.55
2022-08-20T07:01:25.554Z,9.50
2022-08-20T07:03:57.813Z,10.18
2022-08-20T07:06:29.003Z,10.63
2022-08-20T07:08:57.853Z,9.70
2022-08-20T07:11:28.789Z,10.10
2022-08-20T07:13:58.938Z,9.35
2022-08-20T07:16:25.686Z,10.90
2022-08-20T07:18:52.149Z,10.65
2022-08-20T07:21:18.656Z,10.48
2022-08-20T07:23:47.384Z,7.38
2022-08-20T07:26:14.728Z,9.15
2022-08-20T07:28:41.239Z,8.88
2022-08-20T07:31:27.008Z,8.52
2022-08-20T07:33:55.861Z,6.53
2022-08-20T07:36:24.132Z,8.52
2022-08-20T07:38:52.485Z,5.82
2022-08-20T07:41:21.526Z,8.88
2022-08-20T07:43:50.912Z,9.57
2022-08-20T07:46:21.423Z,8.23
2022-08-20T07:48:51.471Z,7.65
2022-08-20T07:51:22.237Z,8.38
2022-08-20T07:53:54.024Z,7.82
2022-08-20T07:56:26.629Z,9.38
2022-08-20T07:58:56.213Z,8.23
2022-08-20T08:01:28.817Z,8.57
2022-08-20T08:03:56.890Z,8.23
2022-08-20T08:06:29.067Z,7.50
2022-08-20T08:08:57.894Z,7.43
2022-08-20T08:11:27.515Z,6.93
2022-08-20T08:14:03.019Z,7.78
2022-08-20T08:16:35.380Z,7.60
2022-08-20T08:19:05.020Z,9.35
2022-08-20T08:21:31.726Z,7.78
2022-08-20T08:23:58.431Z,8.18
2022-08-20T08:26:29.044Z,6.45
2022-08-20T08:28:56.118Z,8.68
2022-08-20T08:31:25.909Z,8.10
2022-08-20T08:33:52.857Z,7.30
2022-08-20T08:36:24.739Z,7.10
2022-08-20T08:38:54.576Z,8.00
2022-08-20T08:41:49.859Z,6.72
2022-08-20T08:44:37.779Z,8.10
2022-08-20T08:47:24.127Z,8.23
2022-08-20T08:49:50.836Z,4.43
2022-08-20T08:52:25.151Z,7.22
2022-08-20T08:54:59.476Z,9.02
2022-08-20T08:57:35.120Z,7.25
2022-08-20T09:00:12.236Z,5.35
2022-08-20T09:02:41.928Z,8.45
2022-08-20T09:05:15.061Z,6.05
2022-08-20T09:07:42.497Z,5.60
2022-08-20T09:10:09.419Z,7.22
2022-08-20T09:12:44.454Z,6.90
2022-08-20T09:15:15.047Z,6.72
2022-08-20T09:17:41.747Z,5.25
2022-08-20T09:20:09.938Z,5.72
2022-08-20T09:22:43.809Z,5.88
2022-08-20T09:25:22.603Z,5.82
2022-08-20T09:27:49.677Z,7.45
2022-08-20T09:30:21.182Z,7.40
2022-08-20T09:32:48.312Z,7.78
2022-08-20T09:35:17.873Z,5.60
2022-08-20T09:37:44.544Z,4.60
2022-08-20T09:40:16.029Z,5.55
2022-08-20T09:42:51.394Z,5.22
2022-08-20T09:45:21.223Z,5.05
2022-08-20T09:47:56.520Z,4.10
2022-08-20T09:50:26.307Z,7.88
2022-08-20T09:52:54.041Z,7.10
2022-08-20T09:55:36.734Z,5.43
2022-08-20T09:58:07.527Z,7.72
2022-08-20T10:00:34.131Z,5.95
2022-08-20T10:03:01.868Z,6.63
2022-08-20T10:05:28.268Z,5.80
2022-08-20T10:07:54.656Z,8.13
2022-08-20T10:10:21.083Z,6.40
2022-08-20T10:12:50.500Z,6.32
2022-08-20T10:15:19.315Z,5.60
2022-08-20T10:17:45.806Z,6.43
2022-08-20T10:20:14.583Z,7.05
2022-08-20T10:22:41.101Z,8.00
2022-08-20T10:25:08.388Z,7.57
2022-08-20T10:27:35.896Z,10.15
2022-08-20T10:30:05.015Z,7.10
2022-08-20T10:32:31.866Z,7.38
2022-08-20T10:34:58.302Z,8.93
2022-08-20T10:37:26.210Z,8.95
2022-08-20T10:39:53.537Z,7.05
2022-08-20T10:42:20.903Z,6.43
2022-08-20T10:44:47.351Z,7.50
2022-08-20T10:47:29.545Z,6.47
2022-08-20T10:49:57.498Z,7.93
2022-08-20T10:52:24.972Z,7.00
2022-08-20T10:54:52.164Z,7.22
2022-08-20T10:57:27.317Z,5.53
2022-08-20T10:59:55.556Z,6.43
2022-08-20T11:02:22.817Z,5.25
2022-08-20T11:04:50.071Z,9.32
2022-08-20T11:07:21.113Z,6.43
2022-08-20T11:10:13.480Z,8.57
2022-08-20T11:12:40.351Z,5.18
2022-08-20T11:15:09.432Z,8.10
2022-08-20T11:17:40.641Z,7.10
2022-08-20T11:20:08.466Z,8.80
2022-08-20T11:22:35.125Z,10.23
2022-08-20T11:25:01.553Z,9.23
2022-08-20T11:27:31.806Z,5.95
2022-08-20T11:29:58.440Z,7.55
2022-08-20T11:32:25.260Z,7.45
2022-08-20T11:34:51.992Z,7.00
2022-08-20T11:37:20.129Z,5.72
2022-08-20T11:39:46.855Z,6.05
2022-08-20T11:42:13.381Z,6.18
2022-08-20T11:44:39.771Z,5.13
2022-08-20T11:47:07.145Z,5.68
2022-08-20T11:49:35.046Z,7.30
2022-08-20T11:52:01.601Z,6.07
2022-08-20T11:54:29.085Z,7.80
2022-08-20T11:56:57.868Z,10.10
2022-08-20T11:59:25.319Z,6.65
2022-08-20T12:02:03.117Z,7.50
2022-08-20T12:04:33.655Z,7.97
2022-08-20T12:07:09.128Z,7.13
2022-08-20T12:09:36.834Z,9.05
2022-08-20T12:12:08.573Z,7.03
2022-08-20T12:14:35.103Z,6.05
2022-08-20T12:17:26.676Z,6.43
2022-08-20T12:19:54.474Z,8.65
2022-08-20T12:22:25.202Z,9.07
2022-08-20T12:24:53.277Z,9.73
2022-08-20T12:27:23.012Z,8.23
2022-08-20T12:29:53.194Z,8.48
2022-08-20T12:32:23.596Z,8.93
2022-08-20T12:34:50.340Z,5.90
2022-08-20T12:37:19.352Z,7.45
2022-08-20T12:39:50.022Z,10.20
2022-08-20T12:42:16.873Z,7.30
2022-08-20T12:44:43.557Z,7.65
2022-08-20T12:47:11.203Z,10.45
2022-08-20T12:49:39.463Z,9.57
2022-08-20T12:52:05.899Z,8.55
2022-08-20T12:54:32.575Z,8.27
2022-08-20T12:56:59.011Z,8.10
2022-08-20T12:59:26.268Z,5.93
2022-08-20T13:01:53.431Z,8.02
2022-08-20T13:04:20.206Z,6.45
2022-08-20T13:06:46.984Z,8.60
2022-08-20T13:09:13.859Z,7.03
2022-08-20T13:11:41.269Z,9.68
2022-08-20T13:14:07.658Z,7.80
2022-08-20T13:16:34.144Z,8.70
2022-08-20T13:19:00.689Z,9.90
2022-08-20T13:21:27.347Z,8.00
2022-08-20T13:23:53.880Z,7.32
2022-08-20T13:26:20.305Z,10.52
2022-08-20T13:28:46.823Z,4.95
2022-08-20T13:31:13.819Z,6.75
2022-08-20T13:33:40.196Z,11.00
2022-08-20T13:36:08.024Z,7.00
2022-08-20T13:38:34.464Z,7.50
2022-08-20T13:41:00.878Z,6.30
2022-08-20T13:43:27.275Z,10.75
2022-08-20T13:45:53.667Z,7.78
2022-08-20T13:48:20.059Z,9.95
2022-08-20T13:50:46.917Z,6.75
2022-08-20T13:53:13.848Z,8.00
2022-08-20T13:55:40.236Z,8.38
2022-08-20T13:58:07.610Z,10.43
2022-08-20T14:00:35.200Z,8.00
2022-08-20T14:03:02.852Z,9.68
2022-08-20T14:05:30.521Z,7.28
2022-08-20T14:08:11.892Z,8.60
2022-08-20T14:13:06.825Z,10.63
2022-08-20T14:15:34.864Z,7.30
2022-08-20T14:18:01.672Z,8.80
2022-08-20T14:20:32.106Z,8.32
2022-08-20T14:22:59.826Z,8.45
2022-08-20T14:25:27.130Z,6.53
2022-08-20T14:27:54.439Z,5.57
2022-08-20T14:30:26.845Z,7.40
2022-08-20T14:32:53.671Z,10.88
2022-08-20T14:35:20.864Z,8.45
2022-08-20T14:37:53.181Z,9.43
2022-08-20T14:40:21.068Z,8.55
2022-08-20T14:42:51.644Z,5.53
2022-08-20T14:45:21.813Z,7.47
2022-08-20T14:47:54.256Z,8.05
2022-08-20T14:50:20.723Z,8.23
2022-08-20T14:52:47.232Z,7.93
2022-08-20T14:55:17.256Z,9.10
2022-08-20T14:57:44.067Z,9.82
2022-08-20T15:00:14.120Z,8.70
2022-08-20T15:02:41.204Z,8.57
2022-08-20T15:05:08.400Z,6.60
2022-08-20T15:07:38.050Z,8.20
2022-08-20T15:10:17.546Z,7.93
2022-08-20T15:12:43.997Z,11.30
2022-08-20T15:15:15.976Z,4.75
2022-08-20T15:17:45.184Z,8.73
2022-08-20T15:20:20.351Z,5.22
2022-08-20T15:22:47.877Z,5.55
2022-08-20T15:25:16.375Z,4.68
2022-08-20T15:27:43.043Z,6.85
2022-08-20T15:30:14.159Z,6.22
2022-08-20T15:32:40.652Z,7.88
2022-08-20T15:35:09.801Z,6.32
2022-08-20T15:40:09.079Z,5.97
2022-08-20T15:42:36.254Z,5.15
2022-08-20T15:45:02.800Z,7.68
2022-08-20T15:47:34.476Z,5.82
2022-08-20T15:50:14.042Z,5.72
2022-08-20T15:52:43.193Z,7.28
2022-08-20T15:55:13.456Z,7.57
2022-08-20T15:57:50.113Z,7.35
2022-08-20T16:00:20.324Z,5.22
2022-08-20T16:03:08.824Z,5.50
2022-08-20T16:05:56.524Z,5.25
2022-08-20T16:11:37.284Z,5.45
2022-08-20T16:14:11.384Z,8.48
2022-08-20T16:16:49.853Z,4.38
2022-08-20T16:19:29.078Z,6.90
2022-08-20T16:21:56.897Z,5.68
2022-08-20T16:24:23.963Z,7.25
2022-08-20T16:27:19.571Z,5.07
2022-08-20T16:29:53.703Z,5.82
2022-08-20T16:32:43.244Z,6.80
2022-08-20T16:35:47.472Z,4.43
2022-08-20T16:38:22.641Z,5.50
2022-08-20T16:40:56.442Z,5.65
2022-08-20T16:43:32.820Z,6.35
2022-08-20T16:46:03.880Z,6.13
2022-08-20T16:48:39.429Z,6.30
2022-08-20T16:51:14.576Z,6.45
2022-08-20T16:53:40.967Z,5.68
2022-08-20T16:56:07.557Z,6.97
2022-08-20T16:58:34.255Z,5.65
2022-08-20T17:01:13.680Z,7.75
2022-08-20T17:03:49.723Z,4.20
2022-08-20T17:06:26.059Z,5.43
2022-08-20T17:08:52.821Z,6.90
2022-08-20T17:11:25.351Z,7.45
2022-08-20T17:14:07.024Z,6.25
2022-08-20T17:19:14.761Z,8.50
2022-08-20T17:21:41.933Z,5.80
2022-08-20T17:24:16.594Z,5.43
2022-08-20T17:26:47.016Z,6.25
2022-08-20T17:29:17.411Z,6.00
2022-08-20T17:31:46.863Z,7.93
2022-08-20T17:34:21.695Z,8.40
2022-08-20T17:36:57.105Z,5.40
2022-08-20T17:39:26.770Z,7.97
2022-08-20T17:42:09.552Z,4.80
2022-08-20T17:44:41.560Z,6.25
2022-08-20T17:47:13.265Z,3.63
2022-08-20T17:49:44.831Z,5.63
2022-08-20T17:52:36.036Z,6.82
2022-08-20T17:55:03.006Z,5.35
2022-08-20T17:57:33.591Z,6.53
2022-08-20T18:00:08.454Z,5.70
2022-08-20T18:02:36.931Z,6.13
2022-08-20T18:05:09.332Z,6.80
2022-08-20T18:07:45.023Z,8.18
2022-08-20T18:10:17.704Z,7.38
2022-08-20T18:12:51.645Z,5.40
2022-08-20T18:15:24.528Z,6.43
2022-08-20T18:18:25.633Z,5.68
2022-08-20T18:21:11.112Z,6.18
2022-08-20T18:23:41.292Z,6.53
2022-08-20T18:26:13.448Z,4.00
2022-08-20T18:28:50.261Z,4.80
2022-08-20T18:31:48.645Z,5.07
2022-08-20T18:34:21.320Z,4.38
2022-08-20T18:36:56.932Z,8.50
2022-08-20T18:39:31.857Z,7.15
2022-08-20T18:42:10.804Z,4.03
2022-08-20T18:44:44.063Z,7.22
2022-08-20T18:47:20.817Z,6.70
2022-08-20T18:50:18.432Z,5.90
2022-08-20T18:52:56.051Z,6.72
2022-08-20T18:55:39.066Z,4.75
2022-08-20T18:58:11.374Z,4.90
2022-08-20T19:00:49.102Z,6.40
2022-08-20T19:03:41.594Z,7.15
2022-08-20T19:06:15.273Z,4.50
2022-08-20T19:09:10.812Z,5.88
2022-08-20T19:11:57.517Z,6.38
2022-08-20T19:14:57.556Z,7.28
2022-08-20T19:17:43.885Z,5.13
2022-08-20T19:20:17.378Z,6.53
2022-08-20T19:22:44.705Z,5.55
2022-08-20T19:25:27.737Z,5.30
2022-08-20T19:27:55.162Z,6.63
2022-08-20T19:30:48.065Z,7.05
2022-08-20T19:33:14.812Z,5.93
2022-08-20T19:35:41.355Z,6.35
2022-08-20T19:38:15.788Z,6.57
2022-08-20T19:40:46.186Z,5.38
2022-08-20T19:43:16.938Z,6.07
2022-08-20T19:45:52.428Z,5.03
2022-08-20T19:48:43.025Z,5.60
2022-08-20T19:51:09.316Z,6.07
2022-08-20T19:53:37.111Z,5.22
2022-08-20T19:56:11.072Z,4.75
2022-08-20T19:58:37.835Z,6.32
2022-08-20T20:01:10.610Z,8.02
2022-08-20T20:03:40.473Z,6.82
2022-08-20T20:06:17.341Z,5.80
2022-08-20T20:09:07.035Z,4.53
2022-08-20T20:11:36.297Z,5.13
2022-08-20T20:14:11.930Z,5.40
2022-08-20T20:16:39.829Z,4.38
2022-08-20T20:19:28.496Z,4.50
2022-08-20T20:22:18.820Z,6.70
2022-08-20T20:25:03.688Z,6.03
2022-08-20T20:27:32.030Z,6.05
2022-08-20T20:30:05.583Z,7.38
2022-08-20T20:32:33.915Z,4.80
2022-08-20T20:35:04.024Z,5.43
2022-08-20T20:37:49.333Z,5.40
2022-08-20T20:40:26.775Z,9.02
2022-08-20T20:43:07.289Z,6.65
2022-08-20T20:45:42.136Z,5.00
2022-08-20T20:48:21.189Z,6.63
2022-08-20T20:50:48.898Z,5.43
2022-08-20T20:53:50.866Z,6.40
2022-08-20T20:56:36.486Z,6.90
2022-08-20T20:59:06.867Z,6.35
2022-08-20T21:01:49.115Z,8.25
2022-08-20T21:04:19.944Z,10.18
2022-08-20T21:06:46.336Z,6.07
2022-08-20T21:09:12.943Z,7.03
2022-08-20T21:11:39.340Z,7.07
2022-08-20T21:14:05.784Z,7.55
2022-08-20T21:16:32.202Z,7.35
2022-08-20T21:18:58.595Z,8.55
2022-08-20T21:21:25.033Z,10.10
2022-08-20T21:23:51.416Z,4.70
2022-08-20T21:26:18.069Z,5.05
2022-08-20T21:28:44.490Z,7.57
2022-08-20T21:31:10.909Z,5.97
2022-08-20T21:33:37.308Z,7.60
2022-08-20T21:36:04.018Z,6.70
2022-08-20T21:38:30.453Z,7.88
2022-08-20T21:40:58.073Z,4.45
2022-08-20T21:43:24.714Z,6.03
2022-08-20T21:45:51.197Z,6.93
2022-08-20T21:48:17.614Z,4.30
2022-08-20T21:50:44.021Z,7.60
2022-08-20T21:53:12.888Z,5.68
2022-08-20T21:55:40.105Z,5.78
2022-08-20T21:58:06.606Z,7.25
2022-08-20T22:00:58.749Z,6.43
2022-08-20T22:03:28.330Z,7.53
2022-08-20T22:05:55.960Z,6.80
2022-08-20T22:08:26.117Z,7.85
2022-08-20T22:10:54.915Z,5.13
2022-08-20T22:13:22.093Z,7.95
2022-08-20T22:15:48.652Z,7.72
2022-08-20T22:18:16.169Z,8.43
2022-08-20T22:20:42.994Z,7.10
2022-08-20T22:23:09.833Z,9.20
2022-08-20T22:25:36.966Z,9.70
2022-08-20T22:28:03.549Z,7.65
2022-08-20T22:30:30.210Z,9.00
2022-08-20T22:33:04.500Z,6.30
2022-08-20T22:35:31.664Z,5.95
2022-08-20T22:37:58.205Z,6.70
2022-08-20T22:40:24.908Z,6.43
2022-08-20T22:42:51.317Z,8.32
2022-08-20T22:45:17.906Z,8.30
2022-08-20T22:47:44.364Z,7.63
2022-08-20T22:50:12.469Z,7.38
2022-08-20T22:52:41.968Z,7.10
2022-08-20T22:55:09.538Z,6.57
2022-08-20T22:57:37.185Z,6.43
2022-08-20T23:00:13.391Z,7.50
2022-08-20T23:05:08.405Z,7.15
2022-08-20T23:07:34.796Z,6.68
2022-08-20T23:10:01.200Z,7.22
2022-08-20T23:12:27.694Z,6.53
2022-08-20T23:14:54.813Z,7.22
2022-08-20T23:17:21.266Z,9.30
2022-08-20T23:19:48.857Z,9.95
2022-08-20T23:22:15.356Z,7.78
2022-08-20T23:24:41.972Z,9.73
2022-08-20T23:27:10.415Z,8.85
2022-08-20T23:29:36.820Z,7.70
2022-08-20T23:32:03.816Z,7.75
2022-08-20T23:34:30.421Z,7.05
2022-08-20T23:36:57.144Z,8.48
2022-08-20T23:39:24.710Z,8.15
2022-08-20T23:41:51.111Z,7.70
2022-08-20T23:44:25.685Z,8.23
2022-08-20T23:49:21.400Z,8.75
2022-08-20T23:51:47.821Z,8.07
2022-08-20T23:54:14.266Z,8.45
2022-08-20T23:56:40.734Z,9.05
2022-08-20T23:59:07.125Z,7.22
